»·PEaware :: WAT234 KDEN-KLAS

WAT234 :: KDEN-KLAS

FLIGHT INFORMATION

Flight Status: Arrived
Operator:
Walker Air Transport
More flights by this operator :: More flights under this callsign
Pilot: Eduardo Elias G. (24838)
Aircraft: BOEING 747-400 (WINGLETS)
(B744)
More flights by this aircraft type
Origin: KDEN Denver Intl
United States
Destination: KLAS McCarran Intl
United States
More flights between these airports :: More routes between these airports
Route: +CONNR7 WERNR ZAKRY GGAPP SITEE4
File this flight plan on PilotEdge
Remarks:
Altitude:
(Current/Filed)
36,000ft
Speed:
(Current/Filed)
525kts
Departed: 08-Sep-20 09:36 PM
Arrived: 08-Sep-20 10:57 PM
Distance/Time
Traveled:
544nm/1:21
Distance/Time
To Go:
Arrived

Flight Plot

Page will automatically refresh every two minutes.

Flight plan parsing failed; only flown route is shown


Map Options




Map Legend


Flown Route
Filed Route
Departure Airport
Arrival Airport
Navaid (VOR, NDB)
Fix

Horizontal Profiles

Position Reports

Time Latitude Longitude Heading Altitude Ground
Speed
08-Sep-20 20:43 39.854499 -104.673134 179 5444ft 0kts
08-Sep-20 20:44 39.854499 -104.673134 179 5444ft 0kts
08-Sep-20 20:45 39.854499 -104.673134 179 5444ft 0kts
08-Sep-20 20:46 39.854499 -104.673134 179 5444ft 0kts
08-Sep-20 20:47 39.854499 -104.673134 179 5444ft 0kts
08-Sep-20 20:48 39.854499 -104.673134 179 5444ft 0kts
08-Sep-20 20:49 39.854499 -104.673134 179 5444ft 0kts
08-Sep-20 20:50 39.854499 -104.673134 179 5444ft 0kts
08-Sep-20 20:51 39.854499 -104.673134 179 5444ft 0kts
08-Sep-20 20:52 39.854499 -104.673134 179 5444ft 0kts
08-Sep-20 20:53 39.854499 -104.673134 179 5444ft 0kts
08-Sep-20 20:54 39.854499 -104.673134 179 5444ft 0kts
08-Sep-20 20:55 39.854499 -104.673134 179 5444ft 0kts
08-Sep-20 20:56 39.854499 -104.673134 179 5444ft 0kts
08-Sep-20 20:57 39.854499 -104.673134 179 5444ft 0kts
08-Sep-20 20:58 39.854499 -104.673134 179 5444ft 0kts
08-Sep-20 20:59 39.854499 -104.673134 179 5444ft 0kts
08-Sep-20 21:00 39.854499 -104.673134 179 5444ft 0kts
08-Sep-20 21:02 39.854499 -104.673134 179 5444ft 0kts
08-Sep-20 21:03 39.854499 -104.673134 179 5444ft 0kts
08-Sep-20 21:04 39.854499 -104.673134 179 5444ft 0kts
08-Sep-20 21:05 39.854499 -104.673134 179 5444ft 0kts
08-Sep-20 21:06 39.854499 -104.673134 179 5444ft 0kts
08-Sep-20 21:07 39.854499 -104.673134 179 5444ft 0kts
08-Sep-20 21:08 39.854499 -104.673134 179 5444ft 0kts
08-Sep-20 21:09 39.854499 -104.673134 179 5444ft 0kts
08-Sep-20 21:10 39.854499 -104.673134 179 5444ft 0kts
08-Sep-20 21:11 39.854499 -104.673134 179 5444ft 0kts
08-Sep-20 21:12 39.854499 -104.673134 179 5444ft 0kts
08-Sep-20 21:13 39.854499 -104.673134 179 5444ft 0kts
08-Sep-20 21:14 39.854499 -104.673134 179 5444ft 0kts
08-Sep-20 21:14 39.854561 -104.673133 176 5444ft 2kts
08-Sep-20 21:16 39.855212 -104.673767 102 5444ft 2kts
08-Sep-20 21:17 39.855250 -104.674723 91 5444ft 0kts
08-Sep-20 21:17 39.855250 -104.674723 91 5444ft 0kts
08-Sep-20 21:19 39.855250 -104.674723 91 5444ft 0kts
08-Sep-20 21:20 39.855250 -104.674723 91 5444ft 0kts
08-Sep-20 21:20 39.855250 -104.674723 91 5444ft 0kts
08-Sep-20 21:21 39.855250 -104.674723 91 5444ft 0kts
08-Sep-20 21:23 39.855250 -104.674723 91 5444ft 0kts
08-Sep-20 21:23 39.855250 -104.674723 91 5444ft 0kts
08-Sep-20 21:24 39.855250 -104.674723 91 5444ft 0kts
08-Sep-20 21:25 39.855250 -104.674721 91 5444ft 0kts
08-Sep-20 21:26 39.855903 -104.669591 77 5444ft 14kts
08-Sep-20 21:27 39.855894 -104.664887 90 5444ft 11kts
08-Sep-20 21:28 39.857156 -104.662360 0 5444ft 10kts
08-Sep-20 21:29 39.860164 -104.662342 0 5444ft 14kts
08-Sep-20 21:30 39.861672 -104.662324 1 5444ft 0kts
08-Sep-20 21:31 39.861690 -104.662324 1 5444ft 2kts
08-Sep-20 21:32 39.864716 -104.663404 190 5444ft 8kts
08-Sep-20 21:33 39.861271 -104.663254 135 5444ft 6kts
08-Sep-20 21:34 39.861009 -104.660220 142 5444ft 12kts
08-Sep-20 21:35 39.851544 -104.660257 180 5444ft 159kts
08-Sep-20 21:36 39.808578 -104.696803 263 8051ft 237kts
08-Sep-20 21:37 39.821897 -104.793394 285 9730ft 286kts
08-Sep-20 21:38 39.839519 -104.904621 269 10003ft 344kts
08-Sep-20 21:39 39.819500 -105.026346 253 11231ft 386kts
08-Sep-20 21:40 39.791432 -105.162250 251 16049ft 381kts
08-Sep-20 21:41 39.764205 -105.296468 249 19660ft 396kts
08-Sep-20 21:42 39.734937 -105.439472 250 22488ft 422kts
08-Sep-20 21:43 39.703706 -105.591747 250 25213ft 443kts
08-Sep-20 21:44 39.676415 -105.750644 253 28081ft 455kts
08-Sep-20 21:45 39.654810 -105.910692 251 31211ft 440kts
08-Sep-20 21:46 39.633394 -106.064043 251 33735ft 429kts
08-Sep-20 21:47 39.612652 -106.216000 252 35519ft 428kts
08-Sep-20 21:48 39.591474 -106.369713 253 36255ft 442kts
08-Sep-20 21:49 39.569276 -106.524037 253 36226ft 469kts
08-Sep-20 21:50 39.541521 -106.692296 246 36205ft 479kts
08-Sep-20 21:51 39.491518 -106.852189 243 36194ft 480kts
08-Sep-20 21:52 39.440989 -107.012383 243 36188ft 483kts
08-Sep-20 21:53 39.389555 -107.173959 243 36598ft 486kts
08-Sep-20 21:54 39.337145 -107.328357 242 38169ft 461kts
08-Sep-20 21:55 39.283102 -107.482287 242 38222ft 478kts
08-Sep-20 21:56 39.227733 -107.640457 243 38209ft 488kts
08-Sep-20 21:57 39.172294 -107.800310 242 38185ft 487kts
08-Sep-20 21:58 39.116420 -107.959086 242 38174ft 486kts
08-Sep-20 21:59 39.060092 -108.118037 243 38160ft 493kts
08-Sep-20 22:00 39.002556 -108.279520 243 38158ft 496kts
08-Sep-20 22:01 38.944799 -108.440715 243 38158ft 497kts
08-Sep-20 22:02 38.886650 -108.602118 243 38160ft 498kts
08-Sep-20 22:03 38.828073 -108.763820 243 38160ft 501kts
08-Sep-20 22:04 38.768921 -108.926223 243 38164ft 505kts
08-Sep-20 22:05 38.709087 -109.089606 244 38161ft 508kts
08-Sep-20 22:06 38.648538 -109.254029 244 38158ft 512kts
08-Sep-20 22:07 38.587520 -109.418826 244 38155ft 516kts
08-Sep-20 22:08 38.525625 -109.585073 244 38155ft 518kts
08-Sep-20 22:09 38.463516 -109.750980 244 38173ft 519kts
08-Sep-20 22:10 38.401134 -109.916704 244 38174ft 519kts
08-Sep-20 22:11 38.338240 -110.082862 244 38176ft 522kts
08-Sep-20 22:12 38.274837 -110.249480 244 38180ft 524kts
08-Sep-20 22:13 38.210936 -110.416481 244 38183ft 526kts
08-Sep-20 22:14 38.146573 -110.583766 245 38184ft 529kts
08-Sep-20 22:15 38.081269 -110.752568 245 38184ft 533kts
08-Sep-20 22:16 38.015476 -110.921714 246 38180ft 537kts
08-Sep-20 22:17 37.949379 -111.090726 246 38173ft 529kts
08-Sep-20 22:18 37.883702 -111.257748 247 38189ft 532kts
08-Sep-20 22:19 37.817144 -111.426106 247 38190ft 536kts
08-Sep-20 22:20 37.750041 -111.594943 248 38173ft 540kts
08-Sep-20 22:21 37.682070 -111.765045 248 38177ft 542kts
08-Sep-20 22:22 37.614180 -111.934744 248 38184ft 542kts
08-Sep-20 22:23 37.545349 -112.104527 248 38186ft 545kts
08-Sep-20 22:24 37.469185 -112.269249 243 38182ft 546kts
08-Sep-20 22:25 37.389871 -112.432511 244 38178ft 546kts
08-Sep-20 22:26 37.311560 -112.595493 244 38179ft 544kts
08-Sep-20 22:27 37.233039 -112.757941 244 38177ft 543kts
08-Sep-20 22:28 37.157250 -112.913600 244 36629ft 507kts
08-Sep-20 22:29 37.085256 -113.060753 246 34407ft 477kts
08-Sep-20 22:30 37.018798 -113.196049 247 32299ft 438kts
08-Sep-20 22:31 36.952535 -113.330385 247 30266ft 461kts
08-Sep-20 22:32 36.886520 -113.463687 247 28281ft 441kts
08-Sep-20 22:33 36.824642 -113.588161 247 26271ft 404kts
08-Sep-20 22:34 36.767258 -113.703182 248 24363ft 382kts
08-Sep-20 22:35 36.711908 -113.814477 247 22560ft 373kts
08-Sep-20 22:36 36.657446 -113.922656 247 20819ft 364kts
08-Sep-20 22:37 36.603920 -114.028567 246 19065ft 356kts
08-Sep-20 22:38 36.551667 -114.131730 246 17355ft 348kts
08-Sep-20 22:39 36.500527 -114.232165 245 15711ft 341kts
08-Sep-20 22:40 36.450072 -114.330296 244 14115ft 332kts
08-Sep-20 22:41 36.400775 -114.425970 244 12546ft 325kts
08-Sep-20 22:42 36.353135 -114.518703 243 11321ft 315kts
08-Sep-20 22:43 36.306222 -114.609515 241 10081ft 313kts
08-Sep-20 22:44 36.249804 -114.681748 227 9157ft 276kts
08-Sep-20 22:45 36.195195 -114.747763 227 8040ft 278kts
08-Sep-20 22:46 36.139780 -114.815652 227 8000ft 281kts
08-Sep-20 22:47 36.097151 -114.888660 264 8000ft 252kts
08-Sep-20 22:48 36.053022 -114.954235 222 8006ft 259kts
08-Sep-20 22:49 36.026362 -115.030269 266 8008ft 247kts
08-Sep-20 22:50 36.019084 -115.114498 267 7939ft 249kts
08-Sep-20 22:51 36.012667 -115.196003 270 6320ft 224kts
08-Sep-20 22:52 36.014857 -115.268202 300 4657ft 197kts
08-Sep-20 22:53 36.053690 -115.258182 66 3996ft 177kts
08-Sep-20 22:54 36.067231 -115.206190 68 2992ft 142kts
08-Sep-20 22:55 36.073633 -115.157099 84 2198ft 138kts
08-Sep-20 22:56 36.074586 -115.134819 57 2194ft 16kts
08-Sep-20 22:57 36.074945 -115.134157 45 2194ft 0kts
08-Sep-20 22:59 36.077226 -115.133817 6 2194ft 10kts
08-Sep-20 23:00 36.080031 -115.133784 359 2194ft 9kts
08-Sep-20 23:01 36.081242 -115.134967 223 2194ft 3kts
08-Sep-20 23:02 36.081083 -115.135159 224 2194ft 0kts
08-Sep-20 23:03 36.081032 -115.135219 224 2194ft 0kts
08-Sep-20 23:04 36.081032 -115.135219 224 2194ft 0kts
08-Sep-20 23:05 36.081032 -115.135219 224 2194ft 0kts
08-Sep-20 23:06 36.081032 -115.135219 224 2194ft 0kts
08-Sep-20 23:07 36.081032 -115.135219 224 2194ft 0kts

Navigation Log

Ident Type
Flight plan parsing failed, navigation log unavailable